sensor_id;sensor_type;location;lat;lon;timestamp;temperature;humidity
8105;DHT22;4095;48.942;9.104;2022-11-11T00:00:58;8.00;99.90
8105;DHT22;4095;48.942;9.104;2022-11-11T00:03:24;8.00;99.90
8105;DHT22;4095;48.942;9.104;2022-11-11T00:05:51;8.00;99.90
8105;DHT22;4095;48.942;9.104;2022-11-11T00:08:16;8.00;99.90
8105;DHT22;4095;48.942;9.104;2022-11-11T00:10:42;8.00;99.90
8105;DHT22;4095;48.942;9.104;2022-11-11T00:13:07;8.00;99.90
8105;DHT22;4095;48.942;9.104;2022-11-11T00:15:36;8.00;99.90
8105;DHT22;4095;48.942;9.104;2022-11-11T00:18:02;7.90;99.90
8105;DHT22;4095;48.942;9.104;2022-11-11T00:20:46;7.90;99.90
8105;DHT22;4095;48.942;9.104;2022-11-11T00:23:30;7.80;99.90
8105;DHT22;4095;48.942;9.104;2022-11-11T00:26:14;7.90;99.90
8105;DHT22;4095;48.942;9.104;2022-11-11T00:28:40;7.90;99.90
8105;DHT22;4095;48.942;9.104;2022-11-11T00:31:08;7.90;99.90
8105;DHT22;4095;48.942;9.104;2022-11-11T00:33:34;7.90;99.90
8105;DHT22;4095;48.942;9.104;2022-11-11T00:36:00;7.80;99.90
8105;DHT22;4095;48.942;9.104;2022-11-11T00:38:26;7.80;99.90
8105;DHT22;4095;48.942;9.104;2022-11-11T00:41:11;7.80;99.90
8105;DHT22;4095;48.942;9.104;2022-11-11T00:43:37;7.80;99.90
8105;DHT22;4095;48.942;9.104;2022-11-11T00:46:03;7.70;99.90
8105;DHT22;4095;48.942;9.104;2022-11-11T00:48:48;7.70;99.90
8105;DHT22;4095;48.942;9.104;2022-11-11T00:51:32;7.70;99.90
8105;DHT22;4095;48.942;9.104;2022-11-11T00:53:57;7.70;99.90
8105;DHT22;4095;48.942;9.104;2022-11-11T00:56:23;7.70;99.90
8105;DHT22;4095;48.942;9.104;2022-11-11T00:58:49;7.70;99.90
8105;DHT22;4095;48.942;9.104;2022-11-11T01:01:15;7.70;99.90
8105;DHT22;4095;48.942;9.104;2022-11-11T01:03:41;7.70;99.90
8105;DHT22;4095;48.942;9.104;2022-11-11T01:06:06;7.70;99.90
8105;DHT22;4095;48.942;9.104;2022-11-11T01:08:33;7.60;99.90
8105;DHT22;4095;48.942;9.104;2022-11-11T01:10:59;7.60;99.90
8105;DHT22;4095;48.942;9.104;2022-11-11T01:13:27;7.60;99.90
8105;DHT22;4095;48.942;9.104;2022-11-11T01:16:06;7.60;99.90
8105;DHT22;4095;48.942;9.104;2022-11-11T01:18:32;7.60;99.90
8105;DHT22;4095;48.942;9.104;2022-11-11T01:23:24;7.60;99.90
8105;DHT22;4095;48.942;9.104;2022-11-11T01:25:49;7.50;99.90
8105;DHT22;4095;48.942;9.104;2022-11-11T01:28:17;7.60;99.90
8105;DHT22;4095;48.942;9.104;2022-11-11T01:30:43;7.60;99.90
8105;DHT22;4095;48.942;9.104;2022-11-11T01:33:10;7.60;99.90
8105;DHT22;4095;48.942;9.104;2022-11-11T01:35:40;7.60;99.90
8105;DHT22;4095;48.942;9.104;2022-11-11T01:38:07;7.60;99.90
8105;DHT22;4095;48.942;9.104;2022-11-11T01:40:44;7.50;99.90
8105;DHT22;4095;48.942;9.104;2022-11-11T01:45:45;7.50;99.90
8105;DHT22;4095;48.942;9.104;2022-11-11T01:48:23;7.50;99.90
8105;DHT22;4095;48.942;9.104;2022-11-11T01:52:00;7.40;99.90
8105;DHT22;4095;48.942;9.104;2022-11-11T01:54:02;7.50;99.90
8105;DHT22;4095;48.942;9.104;2022-11-11T01:56:29;7.50;99.90
8105;DHT22;4095;48.942;9.104;2022-11-11T01:58:57;7.40;99.90
8105;DHT22;4095;48.942;9.104;2022-11-11T02:01:25;7.40;99.90
8105;DHT22;4095;48.942;9.104;2022-11-11T02:03:52;7.40;99.90
8105;DHT22;4095;48.942;9.104;2022-11-11T02:06:38;7.40;99.90
8105;DHT22;4095;48.942;9.104;2022-11-11T02:09:05;7.40;99.90
8105;DHT22;4095;48.942;9.104;2022-11-11T02:11:33;7.40;99.90
8105;DHT22;4095;48.942;9.104;2022-11-11T02:14:18;7.30;99.90
8105;DHT22;4095;48.942;9.104;2022-11-11T02:17:08;7.30;99.90
8105;DHT22;4095;48.942;9.104;2022-11-11T02:20:00;7.30;99.90
8105;DHT22;4095;48.942;9.104;2022-11-11T02:24:55;7.20;99.90
8105;DHT22;4095;48.942;9.104;2022-11-11T02:27:22;7.20;99.90
8105;DHT22;4095;48.942;9.104;2022-11-11T02:29:51;7.20;99.90
8105;DHT22;4095;48.942;9.104;2022-11-11T02:32:17;7.20;99.90
8105;DHT22;4095;48.942;9.104;2022-11-11T02:34:43;7.20;99.90
8105;DHT22;4095;48.942;9.104;2022-11-11T02:37:09;7.20;99.90
8105;DHT22;4095;48.942;9.104;2022-11-11T02:39:40;7.10;99.90
8105;DHT22;4095;48.942;9.104;2022-11-11T02:42:06;7.00;99.90
8105;DHT22;4095;48.942;9.104;2022-11-11T02:44:35;7.00;99.90
8105;DHT22;4095;48.942;9.104;2022-11-11T02:47:03;6.90;99.90
8105;DHT22;4095;48.942;9.104;2022-11-11T02:49:28;7.00;99.90
8105;DHT22;4095;48.942;9.104;2022-11-11T02:51:54;7.00;99.90
8105;DHT22;4095;48.942;9.104;2022-11-11T02:54:20;7.00;99.90
8105;DHT22;4095;48.942;9.104;2022-11-11T02:56:45;7.10;99.90
8105;DHT22;4095;48.942;9.104;2022-11-11T02:59:29;7.10;99.90
8105;DHT22;4095;48.942;9.104;2022-11-11T03:01:55;7.10;99.90
8105;DHT22;4095;48.942;9.104;2022-11-11T03:04:21;7.10;99.90
8105;DHT22;4095;48.942;9.104;2022-11-11T03:06:46;7.10;99.90
8105;DHT22;4095;48.942;9.104;2022-11-11T03:09:12;7.10;99.90
8105;DHT22;4095;48.942;9.104;2022-11-11T03:11:37;7.10;99.90
8105;DHT22;4095;48.942;9.104;2022-11-11T03:14:03;7.10;99.90
8105;DHT22;4095;48.942;9.104;2022-11-11T03:16:29;7.10;99.90
8105;DHT22;4095;48.942;9.104;2022-11-11T03:19:13;7.20;99.90
8105;DHT22;4095;48.942;9.104;2022-11-11T03:21:39;7.20;99.90
8105;DHT22;4095;48.942;9.104;2022-11-11T03:24:05;7.30;99.90
8105;DHT22;4095;48.942;9.104;2022-11-11T03:26:30;7.20;99.90
8105;DHT22;4095;48.942;9.104;2022-11-11T03:28:56;7.20;99.90
8105;DHT22;4095;48.942;9.104;2022-11-11T03:31:22;7.20;99.90
8105;DHT22;4095;48.942;9.104;2022-11-11T03:33:47;7.20;99.90
8105;DHT22;4095;48.942;9.104;2022-11-11T03:36:13;7.20;99.90
8105;DHT22;4095;48.942;9.104;2022-11-11T03:38:39;7.20;99.90
8105;DHT22;4095;48.942;9.104;2022-11-11T03:41:05;7.20;99.90
8105;DHT22;4095;48.942;9.104;2022-11-11T03:43:32;7.20;99.90
8105;DHT22;4095;48.942;9.104;2022-11-11T03:46:00;7.10;99.90
8105;DHT22;4095;48.942;9.104;2022-11-11T03:48:29;7.10;99.90
8105;DHT22;4095;48.942;9.104;2022-11-11T03:50:55;7.10;99.90
8105;DHT22;4095;48.942;9.104;2022-11-11T03:53:21;7.10;99.90
8105;DHT22;4095;48.942;9.104;2022-11-11T03:55:50;7.10;99.90
8105;DHT22;4095;48.942;9.104;2022-11-11T03:58:17;7.00;99.90
8105;DHT22;4095;48.942;9.104;2022-11-11T04:00:43;7.00;99.90
8105;DHT22;4095;48.942;9.104;2022-11-11T04:03:11;7.00;99.90
8105;DHT22;4095;48.942;9.104;2022-11-11T04:05:56;7.00;99.90
8105;DHT22;4095;48.942;9.104;2022-11-11T04:08:40;6.90;99.90
8105;DHT22;4095;48.942;9.104;2022-11-11T04:11:27;6.90;99.90
8105;DHT22;4095;48.942;9.104;2022-11-11T04:13:56;6.90;99.90
8105;DHT22;4095;48.942;9.104;2022-11-11T04:16:43;6.90;99.90
8105;DHT22;4095;48.942;9.104;2022-11-11T04:19:08;6.90;99.90
8105;DHT22;4095;48.942;9.104;2022-11-11T04:21:52;7.00;99.90
8105;DHT22;4095;48.942;9.104;2022-11-11T04:24:20;6.90;99.90
8105;DHT22;4095;48.942;9.104;2022-11-11T04:27:06;6.90;99.90
8105;DHT22;4095;48.942;9.104;2022-11-11T04:29:32;6.90;99.90
8105;DHT22;4095;48.942;9.104;2022-11-11T04:34:55;6.90;99.90
8105;DHT22;4095;48.942;9.104;2022-11-11T04:37:22;6.80;99.90
8105;DHT22;4095;48.942;9.104;2022-11-11T04:39:48;6.90;99.90
8105;DHT22;4095;48.942;9.104;2022-11-11T04:42:33;6.80;99.90
8105;DHT22;4095;48.942;9.104;2022-11-11T04:44:59;6.80;99.90
8105;DHT22;4095;48.942;9.104;2022-11-11T04:50:31;6.80;99.90
8105;DHT22;4095;48.942;9.104;2022-11-11T04:52:57;6.80;99.90
8105;DHT22;4095;48.942;9.104;2022-11-11T04:55:23;6.80;99.90
8105;DHT22;4095;48.942;9.104;2022-11-11T04:58:07;6.70;99.90
8105;DHT22;4095;48.942;9.104;2022-11-11T05:00:33;6.80;99.90
8105;DHT22;4095;48.942;9.104;2022-11-11T05:02:59;6.80;99.90
8105;DHT22;4095;48.942;9.104;2022-11-11T05:05:43;6.80;99.90
8105;DHT22;4095;48.942;9.104;2022-11-11T05:08:28;6.80;99.90
8105;DHT22;4095;48.942;9.104;2022-11-11T05:11:13;6.80;99.90
8105;DHT22;4095;48.942;9.104;2022-11-11T05:13:39;6.80;99.90
8105;DHT22;4095;48.942;9.104;2022-11-11T05:16:26;6.70;99.90
8105;DHT22;4095;48.942;9.104;2022-11-11T05:19:11;6.70;99.90
8105;DHT22;4095;48.942;9.104;2022-11-11T05:22:00;6.70;99.90
8105;DHT22;4095;48.942;9.104;2022-11-11T05:24:29;6.70;99.90
8105;DHT22;4095;48.942;9.104;2022-11-11T05:27:13;6.80;99.90
8105;DHT22;4095;48.942;9.104;2022-11-11T05:29:39;6.80;99.90
8105;DHT22;4095;48.942;9.104;2022-11-11T05:32:06;6.80;99.90
8105;DHT22;4095;48.942;9.104;2022-11-11T05:34:32;6.90;99.90
8105;DHT22;4095;48.942;9.104;2022-11-11T05:36:57;6.90;99.90
8105;DHT22;4095;48.942;9.104;2022-11-11T05:39:23;6.90;99.90
8105;DHT22;4095;48.942;9.104;2022-11-11T05:41:49;6.90;99.90
8105;DHT22;4095;48.942;9.104;2022-11-11T05:44:14;6.90;99.90
8105;DHT22;4095;48.942;9.104;2022-11-11T05:46:40;6.80;99.90
8105;DHT22;4095;48.942;9.104;2022-11-11T05:49:06;6.80;99.90
8105;DHT22;4095;48.942;9.104;2022-11-11T05:51:41;6.80;99.90
8105;DHT22;4095;48.942;9.104;2022-11-11T05:54:07;6.80;99.90
8105;DHT22;4095;48.942;9.104;2022-11-11T05:56:33;6.80;99.90
8105;DHT22;4095;48.942;9.104;2022-11-11T05:58:58;6.80;99.90
8105;DHT22;4095;48.942;9.104;2022-11-11T06:01:25;6.80;99.90
8105;DHT22;4095;48.942;9.104;2022-11-11T06:03:50;6.80;99.90
8105;DHT22;4095;48.942;9.104;2022-11-11T06:06:16;6.80;99.90
8105;DHT22;4095;48.942;9.104;2022-11-11T06:08:41;6.70;99.90
8105;DHT22;4095;48.942;9.104;2022-11-11T06:11:07;6.80;99.90
8105;DHT22;4095;48.942;9.104;2022-11-11T06:13:33;6.70;99.90
8105;DHT22;4095;48.942;9.104;2022-11-11T06:15:59;6.70;99.90
8105;DHT22;4095;48.942;9.104;2022-11-11T06:18:25;6.70;99.90
8105;DHT22;4095;48.942;9.104;2022-11-11T06:20:57;6.70;99.90
8105;DHT22;4095;48.942;9.104;2022-11-11T06:23:24;6.70;99.90
8105;DHT22;4095;48.942;9.104;2022-11-11T06:25:51;6.70;99.90
8105;DHT22;4095;48.942;9.104;2022-11-11T06:28:35;6.70;99.90
8105;DHT22;4095;48.942;9.104;2022-11-11T06:31:01;6.70;99.90
8105;DHT22;4095;48.942;9.104;2022-11-11T06:33:27;6.70;99.90
8105;DHT22;4095;48.942;9.104;2022-11-11T06:35:53;6.70;99.90
8105;DHT22;4095;48.942;9.104;2022-11-11T06:38:19;6.80;99.90
8105;DHT22;4095;48.942;9.104;2022-11-11T06:40:45;6.80;99.90
8105;DHT22;4095;48.942;9.104;2022-11-11T06:43:11;6.80;99.90
8105;DHT22;4095;48.942;9.104;2022-11-11T06:45:37;6.70;99.90
8105;DHT22;4095;48.942;9.104;2022-11-11T06:48:03;6.60;99.90
8105;DHT22;4095;48.942;9.104;2022-11-11T06:50:31;6.60;99.90
8105;DHT22;4095;48.942;9.104;2022-11-11T06:53:03;6.60;99.90
8105;DHT22;4095;48.942;9.104;2022-11-11T06:55:29;6.60;99.90
8105;DHT22;4095;48.942;9.104;2022-11-11T06:57:54;6.60;99.90
8105;DHT22;4095;48.942;9.104;2022-11-11T07:00:20;6.70;99.90
8105;DHT22;4095;48.942;9.104;2022-11-11T07:02:46;6.70;99.90
8105;DHT22;4095;48.942;9.104;2022-11-11T07:05:12;6.70;99.90
8105;DHT22;4095;48.942;9.104;2022-11-11T07:07:37;6.70;99.90
8105;DHT22;4095;48.942;9.104;2022-11-11T07:10:03;6.80;99.90
8105;DHT22;4095;48.942;9.104;2022-11-11T07:12:31;6.80;99.90
8105;DHT22;4095;48.942;9.104;2022-11-11T07:14:57;6.90;99.90
8105;DHT22;4095;48.942;9.104;2022-11-11T07:17:22;6.90;99.90
8105;DHT22;4095;48.942;9.104;2022-11-11T07:19:48;6.90;99.90
8105;DHT22;4095;48.942;9.104;2022-11-11T07:22:14;7.00;99.90
8105;DHT22;4095;48.942;9.104;2022-11-11T07:24:39;7.00;99.90
8105;DHT22;4095;48.942;9.104;2022-11-11T07:27:05;7.10;99.90
8105;DHT22;4095;48.942;9.104;2022-11-11T07:29:31;7.10;99.90
8105;DHT22;4095;48.942;9.104;2022-11-11T07:31:56;7.20;99.90
8105;DHT22;4095;48.942;9.104;2022-11-11T07:34:22;7.20;99.90
8105;DHT22;4095;48.942;9.104;2022-11-11T07:36:47;7.30;99.90
8105;DHT22;4095;48.942;9.104;2022-11-11T07:39:13;7.30;99.90
8105;DHT22;4095;48.942;9.104;2022-11-11T07:41:39;7.40;99.90
8105;DHT22;4095;48.942;9.104;2022-11-11T07:44:04;7.40;99.90
8105;DHT22;4095;48.942;9.104;2022-11-11T07:46:30;7.40;99.90
8105;DHT22;4095;48.942;9.104;2022-11-11T07:48:55;7.40;99.90
8105;DHT22;4095;48.942;9.104;2022-11-11T07:51:21;7.50;99.90
8105;DHT22;4095;48.942;9.104;2022-11-11T07:53:47;7.50;99.90
8105;DHT22;4095;48.942;9.104;2022-11-11T07:56:12;7.50;99.90
8105;DHT22;4095;48.942;9.104;2022-11-11T07:58:38;7.60;99.90
8105;DHT22;4095;48.942;9.104;2022-11-11T08:01:03;7.60;99.90
8105;DHT22;4095;48.942;9.104;2022-11-11T08:03:29;7.70;99.90
8105;DHT22;4095;48.942;9.104;2022-11-11T08:05:55;7.70;99.90
8105;DHT22;4095;48.942;9.104;2022-11-11T08:08:20;7.80;99.90
8105;DHT22;4095;48.942;9.104;2022-11-11T08:10:53;7.80;99.90
8105;DHT22;4095;48.942;9.104;2022-11-11T08:13:19;7.80;99.90
8105;DHT22;4095;48.942;9.104;2022-11-11T08:16:03;7.90;99.90
8105;DHT22;4095;48.942;9.104;2022-11-11T08:18:31;8.00;99.90
8105;DHT22;4095;48.942;9.104;2022-11-11T08:20:57;8.10;99.90
8105;DHT22;4095;48.942;9.104;2022-11-11T08:23:22;8.10;99.90
8105;DHT22;4095;48.942;9.104;2022-11-11T08:26:00;8.10;99.90
8105;DHT22;4095;48.942;9.104;2022-11-11T08:28:28;8.20;99.90
8105;DHT22;4095;48.942;9.104;2022-11-11T08:30:56;8.30;99.90
8105;DHT22;4095;48.942;9.104;2022-11-11T08:33:22;8.30;99.90
8105;DHT22;4095;48.942;9.104;2022-11-11T08:35:48;8.30;99.90
8105;DHT22;4095;48.942;9.104;2022-11-11T08:38:14;8.30;99.90
8105;DHT22;4095;48.942;9.104;2022-11-11T08:40:39;8.40;99.90
8105;DHT22;4095;48.942;9.104;2022-11-11T08:43:05;8.50;99.90
8105;DHT22;4095;48.942;9.104;2022-11-11T08:45:31;8.60;99.90
8105;DHT22;4095;48.942;9.104;2022-11-11T08:47:56;8.80;99.90
8105;DHT22;4095;48.942;9.104;2022-11-11T08:50:22;8.80;99.90
8105;DHT22;4095;48.942;9.104;2022-11-11T08:52:49;9.00;99.90
8105;DHT22;4095;48.942;9.104;2022-11-11T08:55:15;9.20;99.90
8105;DHT22;4095;48.942;9.104;2022-11-11T08:57:41;9.30;99.90
8105;DHT22;4095;48.942;9.104;2022-11-11T09:00:07;9.50;99.90
8105;DHT22;4095;48.942;9.104;2022-11-11T09:02:34;9.60;99.90
8105;DHT22;4095;48.942;9.104;2022-11-11T09:05:00;9.90;99.90
8105;DHT22;4095;48.942;9.104;2022-11-11T09:07:26;10.10;99.90
8105;DHT22;4095;48.942;9.104;2022-11-11T09:09:52;10.30;99.90
8105;DHT22;4095;48.942;9.104;2022-11-11T09:12:18;10.40;99.90
8105;DHT22;4095;48.942;9.104;2022-11-11T09:14:44;10.50;99.90
8105;DHT22;4095;48.942;9.104;2022-11-11T09:17:10;10.60;99.90
8105;DHT22;4095;48.942;9.104;2022-11-11T09:19:36;10.80;99.90
8105;DHT22;4095;48.942;9.104;2022-11-11T09:22:01;10.90;99.90
8105;DHT22;4095;48.942;9.104;2022-11-11T09:24:27;11.00;99.90
8105;DHT22;4095;48.942;9.104;2022-11-11T09:26:53;11.20;99.90
8105;DHT22;4095;48.942;9.104;2022-11-11T09:29:19;11.40;99.90
8105;DHT22;4095;48.942;9.104;2022-11-11T09:31:45;11.60;99.90
8105;DHT22;4095;48.942;9.104;2022-11-11T09:34:12;11.80;99.90
8105;DHT22;4095;48.942;9.104;2022-11-11T09:36:37;11.90;99.90
8105;DHT22;4095;48.942;9.104;2022-11-11T09:39:03;12.00;99.90
8105;DHT22;4095;48.942;9.104;2022-11-11T09:41:56;12.20;99.90
8105;DHT22;4095;48.942;9.104;2022-11-11T09:50:05;13.00;99.90
8105;DHT22;4095;48.942;9.104;2022-11-11T09:52:36;13.40;99.90
8105;DHT22;4095;48.942;9.104;2022-11-11T09:55:24;13.60;99.90
8105;DHT22;4095;48.942;9.104;2022-11-11T09:57:55;13.90;99.90
8105;DHT22;4095;48.942;9.104;2022-11-11T10:00:28;14.00;99.90
8105;DHT22;4095;48.942;9.104;2022-11-11T10:02:58;14.40;99.90
8105;DHT22;4095;48.942;9.104;2022-11-11T10:05:31;14.90;99.90
8105;DHT22;4095;48.942;9.104;2022-11-11T10:10:46;15.60;99.50
8105;DHT22;4095;48.942;9.104;2022-11-11T10:13:18;15.90;99.00
8105;DHT22;4095;48.942;9.104;2022-11-11T10:20:55;16.40;98.10
8105;DHT22;4095;48.942;9.104;2022-11-11T10:23:40;16.60;97.60
8105;DHT22;4095;48.942;9.104;2022-11-11T10:26:35;16.60;97.70
8105;DHT22;4095;48.942;9.104;2022-11-11T10:29:02;16.90;97.80
8105;DHT22;4095;48.942;9.104;2022-11-11T10:31:29;17.20;97.60
8105;DHT22;4095;48.942;9.104;2022-11-11T10:34:02;18.10;97.30
8105;DHT22;4095;48.942;9.104;2022-11-11T10:36:29;18.60;96.40
8105;DHT22;4095;48.942;9.104;2022-11-11T10:39:03;19.40;96.10
8105;DHT22;4095;48.942;9.104;2022-11-11T10:41:34;20.10;94.60
8105;DHT22;4095;48.942;9.104;2022-11-11T10:44:21;20.40;94.00
8105;DHT22;4095;48.942;9.104;2022-11-11T10:46:59;20.90;93.30
8105;DHT22;4095;48.942;9.104;2022-11-11T10:49:30;20.70;92.60
8105;DHT22;4095;48.942;9.104;2022-11-11T10:52:08;20.60;92.70
8105;DHT22;4095;48.942;9.104;2022-11-11T10:54:49;21.20;93.00
8105;DHT22;4095;48.942;9.104;2022-11-11T11:00:10;22.60;90.10
8105;DHT22;4095;48.942;9.104;2022-11-11T11:02:56;23.10;90.10
8105;DHT22;4095;48.942;9.104;2022-11-11T11:05:48;23.20;87.90
8105;DHT22;4095;48.942;9.104;2022-11-11T11:08:25;23.00;89.20
8105;DHT22;4095;48.942;9.104;2022-11-11T11:10:57;22.90;89.10
8105;DHT22;4095;48.942;9.104;2022-11-11T11:13:38;22.50;87.60
8105;DHT22;4095;48.942;9.104;2022-11-11T11:16:35;22.70;88.80
8105;DHT22;4095;48.942;9.104;2022-11-11T11:19:22;22.90;88.40
8105;DHT22;4095;48.942;9.104;2022-11-11T11:21:55;22.80;88.80
8105;DHT22;4095;48.942;9.104;2022-11-11T11:26:50;23.00;87.50
8105;DHT22;4095;48.942;9.104;2022-11-11T11:29:43;22.90;87.00
8105;DHT22;4095;48.942;9.104;2022-11-11T11:32:18;22.80;87.50
8105;DHT22;4095;48.942;9.104;2022-11-11T11:34:48;22.70;88.90
8105;DHT22;4095;48.942;9.104;2022-11-11T11:37:15;22.60;89.30
8105;DHT22;4095;48.942;9.104;2022-11-11T11:39:41;22.80;88.00
8105;DHT22;4095;48.942;9.104;2022-11-11T11:42:07;22.90;88.20
8105;DHT22;4095;48.942;9.104;2022-11-11T11:44:38;22.80;87.50
8105;DHT22;4095;48.942;9.104;2022-11-11T11:52:29;24.00;85.20
8105;DHT22;4095;48.942;9.104;2022-11-11T11:55:05;24.20;83.00
8105;DHT22;4095;48.942;9.104;2022-11-11T12:00:04;24.80;83.50
8105;DHT22;4095;48.942;9.104;2022-11-11T12:05:24;25.00;82.90
8105;DHT22;4095;48.942;9.104;2022-11-11T12:08:05;25.00;80.70
8105;DHT22;4095;48.942;9.104;2022-11-11T12:16:32;23.70;83.70
8105;DHT22;4095;48.942;9.104;2022-11-11T12:19:28;22.90;86.50
8105;DHT22;4095;48.942;9.104;2022-11-11T12:27:28;20.70;91.00
8105;DHT22;4095;48.942;9.104;2022-11-11T12:30:09;20.10;91.50
8105;DHT22;4095;48.942;9.104;2022-11-11T12:32:58;19.70;92.40
8105;DHT22;4095;48.942;9.104;2022-11-11T12:35:40;19.30;93.40
8105;DHT22;4095;48.942;9.104;2022-11-11T12:40:57;18.70;93.80
8105;DHT22;4095;48.942;9.104;2022-11-11T12:49:34;17.90;95.40
8105;DHT22;4095;48.942;9.104;2022-11-11T13:00:21;17.20;96.00
8105;DHT22;4095;48.942;9.104;2022-11-11T13:16:08;16.60;97.20
8105;DHT22;4095;48.942;9.104;2022-11-11T13:18:47;16.50;97.00
8105;DHT22;4095;48.942;9.104;2022-11-11T13:21:46;16.50;96.50
8105;DHT22;4095;48.942;9.104;2022-11-11T13:24:16;16.50;96.80
8105;DHT22;4095;48.942;9.104;2022-11-11T13:27:33;16.50;96.70
8105;DHT22;4095;48.942;9.104;2022-11-11T13:32:23;16.50;96.80
8105;DHT22;4095;48.942;9.104;2022-11-11T13:34:51;16.50;97.10
8105;DHT22;4095;48.942;9.104;2022-11-11T13:37:26;16.60;97.50
8105;DHT22;4095;48.942;9.104;2022-11-11T13:40:07;16.50;97.10
8105;DHT22;4095;48.942;9.104;2022-11-11T13:42:46;16.40;97.30
8105;DHT22;4095;48.942;9.104;2022-11-11T13:45:31;16.40;97.70
8105;DHT22;4095;48.942;9.104;2022-11-11T13:47:58;16.40;98.30
8105;DHT22;4095;48.942;9.104;2022-11-11T13:50:28;16.30;97.80
8105;DHT22;4095;48.942;9.104;2022-11-11T13:53:01;16.30;97.90
8105;DHT22;4095;48.942;9.104;2022-11-11T13:55:37;16.20;98.30
8105;DHT22;4095;48.942;9.104;2022-11-11T13:58:03;16.20;98.50
8105;DHT22;4095;48.942;9.104;2022-11-11T14:00:37;16.10;98.90
8105;DHT22;4095;48.942;9.104;2022-11-11T14:05:45;16.00;99.40
8105;DHT22;4095;48.942;9.104;2022-11-11T14:08:51;15.90;99.40
8105;DHT22;4095;48.942;9.104;2022-11-11T14:13:58;15.80;99.50
8105;DHT22;4095;48.942;9.104;2022-11-11T14:21:55;15.70;99.90
8105;DHT22;4095;48.942;9.104;2022-11-11T14:24:36;15.70;99.90
8105;DHT22;4095;48.942;9.104;2022-11-11T14:27:14;15.70;99.90
8105;DHT22;4095;48.942;9.104;2022-11-11T14:29:52;15.70;99.90
8105;DHT22;4095;48.942;9.104;2022-11-11T14:35:18;15.60;99.90
8105;DHT22;4095;48.942;9.104;2022-11-11T14:37:58;15.60;99.90
8105;DHT22;4095;48.942;9.104;2022-11-11T14:40:31;15.50;99.90
8105;DHT22;4095;48.942;9.104;2022-11-11T14:42:58;15.50;99.90
8105;DHT22;4095;48.942;9.104;2022-11-11T14:47:57;15.40;99.90
8105;DHT22;4095;48.942;9.104;2022-11-11T14:52:59;15.30;99.90
8105;DHT22;4095;48.942;9.104;2022-11-11T14:55:35;15.30;99.90
8105;DHT22;4095;48.942;9.104;2022-11-11T14:58:17;15.20;99.90
8105;DHT22;4095;48.942;9.104;2022-11-11T15:06:17;15.00;99.90
8105;DHT22;4095;48.942;9.104;2022-11-11T15:09:02;14.90;99.90
8105;DHT22;4095;48.942;9.104;2022-11-11T15:11:52;14.80;99.90
8105;DHT22;4095;48.942;9.104;2022-11-11T15:14:31;14.70;99.90
8105;DHT22;4095;48.942;9.104;2022-11-11T15:22:51;14.50;99.90
8105;DHT22;4095;48.942;9.104;2022-11-11T15:25:29;14.40;99.90
8105;DHT22;4095;48.942;9.104;2022-11-11T15:31:30;14.20;99.90
8105;DHT22;4095;48.942;9.104;2022-11-11T15:34:10;14.00;99.90
8105;DHT22;4095;48.942;9.104;2022-11-11T15:37:08;13.90;99.90
8105;DHT22;4095;48.942;9.104;2022-11-11T15:39:45;13.90;99.90
8105;DHT22;4095;48.942;9.104;2022-11-11T15:44:42;13.80;99.90
8105;DHT22;4095;48.942;9.104;2022-11-11T15:47:12;13.70;99.90
8105;DHT22;4095;48.942;9.104;2022-11-11T15:49:44;13.60;99.90
8105;DHT22;4095;48.942;9.104;2022-11-11T15:52:28;13.60;99.90
8105;DHT22;4095;48.942;9.104;2022-11-11T15:54:54;13.50;99.90
8105;DHT22;4095;48.942;9.104;2022-11-11T15:57:31;13.40;99.90
8105;DHT22;4095;48.942;9.104;2022-11-11T16:00:00;13.30;99.90
8105;DHT22;4095;48.942;9.104;2022-11-11T16:02:29;13.20;99.90
8105;DHT22;4095;48.942;9.104;2022-11-11T16:05:00;13.10;99.90
8105;DHT22;4095;48.942;9.104;2022-11-11T16:07:35;13.00;99.90
8105;DHT22;4095;48.942;9.104;2022-11-11T16:10:08;12.90;99.90
8105;DHT22;4095;48.942;9.104;2022-11-11T16:15:15;12.60;99.90
8105;DHT22;4095;48.942;9.104;2022-11-11T16:17:43;12.50;99.90
8105;DHT22;4095;48.942;9.104;2022-11-11T16:20:21;12.50;99.90
8105;DHT22;4095;48.942;9.104;2022-11-11T16:22:50;12.40;99.90
8105;DHT22;4095;48.942;9.104;2022-11-11T16:25:20;12.20;99.90
8105;DHT22;4095;48.942;9.104;2022-11-11T16:27:46;12.20;99.90
8105;DHT22;4095;48.942;9.104;2022-11-11T16:32:51;12.00;99.90
8105;DHT22;4095;48.942;9.104;2022-11-11T16:35:34;11.90;99.90
8105;DHT22;4095;48.942;9.104;2022-11-11T16:38:00;11.80;99.90
8105;DHT22;4095;48.942;9.104;2022-11-11T16:45:51;11.60;99.90
8105;DHT22;4095;48.942;9.104;2022-11-11T16:51:03;11.40;99.90
8105;DHT22;4095;48.942;9.104;2022-11-11T16:53:32;11.40;99.90
8105;DHT22;4095;48.942;9.104;2022-11-11T16:56:04;11.30;99.90
8105;DHT22;4095;48.942;9.104;2022-11-11T16:58:30;11.30;99.90
8105;DHT22;4095;48.942;9.104;2022-11-11T17:01:01;11.30;99.90
8105;DHT22;4095;48.942;9.104;2022-11-11T17:03:28;11.20;99.90
8105;DHT22;4095;48.942;9.104;2022-11-11T17:05:56;11.20;99.90
8105;DHT22;4095;48.942;9.104;2022-11-11T17:10:56;11.00;99.90
8105;DHT22;4095;48.942;9.104;2022-11-11T17:13:22;11.00;99.90
8105;DHT22;4095;48.942;9.104;2022-11-11T17:15:51;10.90;99.90
8105;DHT22;4095;48.942;9.104;2022-11-11T17:18:16;10.90;99.90
8105;DHT22;4095;48.942;9.104;2022-11-11T17:20:43;10.80;99.90
8105;DHT22;4095;48.942;9.104;2022-11-11T17:23:08;10.70;99.90
8105;DHT22;4095;48.942;9.104;2022-11-11T17:25:34;10.70;99.90
8105;DHT22;4095;48.942;9.104;2022-11-11T17:27:59;10.60;99.90
8105;DHT22;4095;48.942;9.104;2022-11-11T17:30:25;10.60;99.90
8105;DHT22;4095;48.942;9.104;2022-11-11T17:32:51;10.50;99.90
8105;DHT22;4095;48.942;9.104;2022-11-11T17:35:16;10.40;99.90
8105;DHT22;4095;48.942;9.104;2022-11-11T17:37:42;10.40;99.90
8105;DHT22;4095;48.942;9.104;2022-11-11T17:40:09;10.40;99.90
8105;DHT22;4095;48.942;9.104;2022-11-11T17:42:36;10.30;99.90
8105;DHT22;4095;48.942;9.104;2022-11-11T17:45:03;10.30;99.90
8105;DHT22;4095;48.942;9.104;2022-11-11T17:47:29;10.30;99.90
8105;DHT22;4095;48.942;9.104;2022-11-11T17:49:56;10.40;99.90
8105;DHT22;4095;48.942;9.104;2022-11-11T17:52:22;10.30;99.90
8105;DHT22;4095;48.942;9.104;2022-11-11T17:54:48;10.30;99.90
8105;DHT22;4095;48.942;9.104;2022-11-11T17:57:14;10.30;99.90
8105;DHT22;4095;48.942;9.104;2022-11-11T17:59:39;10.20;99.90
8105;DHT22;4095;48.942;9.104;2022-11-11T18:02:05;10.20;99.90
8105;DHT22;4095;48.942;9.104;2022-11-11T18:04:31;10.10;99.90
8105;DHT22;4095;48.942;9.104;2022-11-11T18:06:57;10.00;99.90
8105;DHT22;4095;48.942;9.104;2022-11-11T18:09:22;10.00;99.90
8105;DHT22;4095;48.942;9.104;2022-11-11T18:11:48;9.90;99.90
8105;DHT22;4095;48.942;9.104;2022-11-11T18:14:13;9.80;99.90
8105;DHT22;4095;48.942;9.104;2022-11-11T18:16:42;9.80;99.90
8105;DHT22;4095;48.942;9.104;2022-11-11T18:19:08;9.80;99.90
8105;DHT22;4095;48.942;9.104;2022-11-11T18:21:34;9.70;99.90
8105;DHT22;4095;48.942;9.104;2022-11-11T18:24:03;9.70;99.90
8105;DHT22;4095;48.942;9.104;2022-11-11T18:26:28;9.60;99.90
8105;DHT22;4095;48.942;9.104;2022-11-11T18:28:54;9.60;99.90
8105;DHT22;4095;48.942;9.104;2022-11-11T18:31:20;9.50;99.90
8105;DHT22;4095;48.942;9.104;2022-11-11T18:33:46;9.40;99.90
8105;DHT22;4095;48.942;9.104;2022-11-11T18:36:19;9.40;99.90
8105;DHT22;4095;48.942;9.104;2022-11-11T18:38:45;9.40;99.90
8105;DHT22;4095;48.942;9.104;2022-11-11T18:41:17;9.40;99.90
8105;DHT22;4095;48.942;9.104;2022-11-11T18:43:45;9.30;99.90
8105;DHT22;4095;48.942;9.104;2022-11-11T18:46:18;9.20;99.90
8105;DHT22;4095;48.942;9.104;2022-11-11T18:48:45;9.20;99.90
8105;DHT22;4095;48.942;9.104;2022-11-11T18:51:13;9.20;99.90
8105;DHT22;4095;48.942;9.104;2022-11-11T18:53:39;9.20;99.90